Terminal Aerodrome Forecast
Issued by NWS

Home | Current Version | Previous Version | Graphics & Text | Print | Product List | Glossary On
Versions: 1 2 3 4 5 6 7 8 9 10 11 12 13 14
000
FTUS43 KGRB 171129
TAFMTW
TAF
KMTW 171129Z 1712/1812 15008KT P6SM SCT250
     FM171700 17009KT P6SM FEW250
     FM180200 20007KT P6SM FEW250 WS015/26035KT
     FM180800 24008KT 6SM BR FEW250 WS015/29040KT=

USA.gov is the U.S. government's official web portal to all federal, state and local government web resources and services.